.
WxDataArchive / Data Records for 2014-09-28
2014-09-27 September 2014 2014-09-29

Data Records for Sunday, 28 September 2014

Time	Temp	Chill	HIndex	Humid	Dewpt	 Wind 	HiWind	WindDir	Rain 	Barom
-----	----	-----	------	-----	-----	------	------	-------	-----	-----
00:00	60.5	60.5	60.5	81	54.6	0	0	---	0.00	30.154 
00:05	60.2	60.2	60.2	81	54.3	0	0	---	0.00	30.154 
00:10	59.9	59.9	59.9	82	54.4	0	0	---	0.00	30.154 
00:15	59.8	59.8	59.8	82	54.3	0	0	---	0.00	30.150 
00:20	59.5	59.5	59.5	83	54.3	0	0	---	0.00	30.150 
00:25	59.3	59.3	59.3	83	54.1	0	0	---	0.00	30.150 
00:30	59.0	59.0	59.0	84	54.2	0	0	---	0.00	30.150 
00:35	58.7	58.7	58.7	84	53.9	0	0	---	0.00	30.150 
00:40	58.6	58.6	58.6	84	53.8	0	0	---	0.00	30.150 
00:45	58.3	58.3	58.3	85	53.8	0	0	---	0.00	30.147 
00:50	58.1	58.1	58.1	86	53.9	0	0	---	0.00	30.147 
00:55	57.8	57.8	57.8	86	53.6	0	0	---	0.00	30.147 
01:00	57.6	57.6	57.6	87	53.8	0	0	---	0.00	30.145 
01:05	57.3	57.3	57.3	87	53.5	0	0	---	0.00	30.145 
01:10	57.2	57.2	57.2	88	53.7	0	0	---	0.00	30.145 
01:15	57.0	57.0	57.0	88	53.5	0	0	---	0.00	30.145 
01:20	56.9	56.9	56.9	88	53.4	0	0	---	0.00	30.145 
01:25	56.7	56.7	56.7	88	53.2	0	0	---	0.00	30.145 
01:30	56.6	56.6	56.6	89	53.4	0	0	---	0.00	30.143 
01:35	56.5	56.5	56.5	89	53.3	0	0	---	0.00	30.143 
01:40	56.3	56.3	56.3	89	53.1	0	0	---	0.00	30.143 
01:45	56.2	56.2	56.2	89	53.0	0	0	---	0.00	30.145 
01:50	56.2	56.2	56.2	90	53.3	0	0	---	0.00	30.145 
01:55	56.0	56.0	56.0	90	53.1	0	0	---	0.00	30.145 
02:00	56.0	56.0	56.0	90	53.1	0	0	---	0.00	30.143 
02:05	56.0	56.0	56.0	90	53.1	0	0	---	0.00	30.143 
02:10	55.9	55.9	55.9	90	53.0	0	0	---	0.00	30.143 
02:15	56.0	56.0	56.0	91	53.4	0	0	---	0.00	30.142 
02:20	56.0	56.0	56.0	91	53.4	0	0	---	0.00	30.142 
02:25	55.9	55.9	55.9	91	53.3	0	0	---	0.00	30.142 
02:30	55.9	55.9	55.9	91	53.3	0	0	---	0.00	30.138 
02:35	55.7	55.7	55.7	91	53.1	0	0	---	0.00	30.138 
02:40	55.7	55.7	55.7	91	53.1	0	0	---	0.00	30.138 
02:45	55.6	55.6	55.6	92	53.3	0	0	---	0.00	30.137 
02:50	55.6	55.6	55.6	92	53.3	0	0	---	0.00	30.137 
02:55	55.4	55.4	55.4	92	53.1	0	0	---	0.00	30.137 
03:00	55.3	55.3	55.3	92	53.0	0	0	---	0.00	30.134 
03:05	55.3	55.3	55.3	92	53.0	0	0	---	0.00	30.134 
03:10	55.1	55.1	55.1	92	52.8	0	0	---	0.00	30.134 
03:15	55.1	55.1	55.1	92	52.8	0	0	---	0.00	30.135 
03:20	55.0	55.0	55.0	92	52.7	0	0	---	0.00	30.135 
03:25	54.8	54.8	54.8	92	52.5	0	0	---	0.00	30.135 
03:30	54.8	54.8	54.8	92	52.5	0	0	---	0.00	30.134 
03:35	54.7	54.7	54.7	92	52.4	0	0	---	0.00	30.134 
03:40	54.7	54.7	54.7	92	52.4	0	0	---	0.00	30.134 
03:45	54.7	54.7	54.7	92	52.4	0	0	---	0.00	30.134 
03:50	54.5	54.5	54.5	92	52.2	0	0	---	0.00	30.134 
03:55	54.5	54.5	54.5	92	52.2	0	0	---	0.00	30.134 
04:00	54.5	54.5	54.5	92	52.2	0	0	---	0.00	30.135 
04:05	54.4	54.4	54.4	92	52.1	0	0	---	0.00	30.135 
04:10	54.4	54.4	54.4	93	52.4	0	0	---	0.00	30.135 
04:15	54.2	54.2	54.2	93	52.2	0	0	---	0.00	30.137 
04:20	54.2	54.2	54.2	93	52.2	0	0	---	0.00	30.137 
04:25	54.1	54.1	54.1	93	52.1	0	0	---	0.00	30.137 
04:30	54.1	54.1	54.1	93	52.1	0	0	---	0.00	30.136 
04:35	54.1	54.1	54.1	93	52.1	0	0	---	0.00	30.136 
04:40	53.9	53.9	53.9	93	51.9	0	0	---	0.00	30.136 
04:45	53.9	53.9	53.9	93	51.9	0	0	---	0.00	30.135 
04:50	53.9	53.9	53.9	93	51.9	0	0	---	0.00	30.135 
04:55	53.9	53.9	53.9	93	51.9	0	0	---	0.00	30.135 
05:00	53.9	53.9	53.9	93	51.9	0	0	---	0.00	30.134 
05:05	53.9	53.9	53.9	93	51.9	0	0	---	0.00	30.134 
05:10	54.1	54.1	54.1	94	52.4	0	0	---	0.00	30.134 
05:15	54.1	54.1	54.1	94	52.4	0	0	---	0.00	30.133 
05:20	54.1	54.1	54.1	94	52.4	0	0	---	0.00	30.133 
05:25	54.1	54.1	54.1	94	52.4	0	0	---	0.00	30.133 
05:30	54.2	54.2	54.2	94	52.5	0	0	---	0.00	30.133 
05:35	54.2	54.2	54.2	94	52.5	0	0	---	0.00	30.133 
05:40	54.2	54.2	54.2	94	52.5	0	0	---	0.00	30.133 
05:45	54.2	54.2	54.2	94	52.5	0	0	---	0.00	30.136 
05:50	54.2	54.2	54.2	94	52.5	0	0	---	0.00	30.136 
05:55	54.1	54.1	54.1	94	52.4	0	0	---	0.00	30.136 
06:00	54.1	54.1	54.1	94	52.4	0	0	---	0.00	30.137 
06:05	53.9	53.9	53.9	94	52.2	0	0	---	0.00	30.137 
06:10	53.9	53.9	53.9	94	52.2	0	0	---	0.00	30.137 
06:15	53.8	53.8	53.8	94	52.1	0	0	---	0.00	30.136 
06:20	53.8	53.8	53.8	94	52.1	0	0	---	0.00	30.136 
06:25	53.8	53.8	53.8	94	52.1	0	0	---	0.00	30.136 
06:30	53.6	53.6	53.6	94	51.9	0	0	---	0.00	30.135 
06:35	53.6	53.6	53.6	94	51.9	0	0	---	0.00	30.135 
06:40	53.6	53.6	53.6	94	51.9	0	0	---	0.00	30.135 
06:45	53.6	53.6	53.6	94	51.9	0	0	---	0.00	30.132 
06:50	53.8	53.8	53.8	94	52.1	0	0	---	0.00	30.132 
06:55	53.8	53.8	53.8	94	52.1	0	0	---	0.00	30.132 
07:00	53.8	53.8	53.8	94	52.1	0	0	---	0.00	30.130 
07:05	53.8	53.8	53.8	94	52.1	0	0	---	0.00	30.130 
07:10	53.9	53.9	53.9	95	52.5	0	0	---	0.00	30.130 
07:15	53.9	53.9	53.9	95	52.5	0	0	---	0.00	30.138 
07:20	54.1	54.1	54.1	95	52.7	0	0	---	0.00	30.138 
07:25	54.1	54.1	54.1	95	52.7	0	0	---	0.00	30.138 
07:30	54.1	54.1	54.1	95	52.7	0	0	---	0.00	30.142 
07:35	54.1	54.1	54.1	95	52.7	0	0	---	0.00	30.142 
07:40	54.1	54.1	54.1	95	52.7	0	0	---	0.00	30.142 
07:45	54.2	54.2	54.2	95	52.8	0	0	---	0.00	30.142 
07:50	54.2	54.2	54.2	95	52.8	0	0	---	0.00	30.142 
07:55	54.2	54.2	54.2	95	52.8	0	0	---	0.00	30.142 
08:00	54.4	54.4	54.4	95	53.0	0	0	---	0.00	30.146 
08:05	54.7	54.7	54.7	95	53.3	0	0	---	0.00	30.146 
08:10	54.7	54.7	54.7	95	53.3	0	0	---	0.00	30.146 
08:15	54.7	54.7	54.7	95	53.3	0	0	---	0.00	30.144 
08:20	54.7	54.7	54.7	95	53.3	0	0	---	0.00	30.144 
08:25	54.7	54.7	54.7	95	53.3	0	0	---	0.00	30.144 
08:30	54.7	54.7	54.7	95	53.3	0	0	---	0.00	30.143 
08:35	54.8	54.8	54.8	95	53.4	0	0	---	0.00	30.143 
08:40	55.1	55.1	55.1	95	53.7	0	0	---	0.00	30.143 
08:45	55.4	55.4	55.4	96	54.3	0	0	---	0.00	30.144 
08:50	55.9	55.9	55.9	96	54.8	0	0	---	0.00	30.144 
08:55	56.5	56.5	56.5	96	55.4	0	0	---	0.00	30.144 
09:00	57.0	57.0	57.0	96	55.9	0	0	---	0.00	30.140 
09:05	57.5	57.5	57.5	96	56.4	0	1	90	0.00	30.140 
09:10	58.1	58.1	58.1	96	57.0	0	1	90	0.00	30.140 
09:15	58.6	58.6	58.6	95	57.2	0	1	90	0.00	30.135 
09:20	59.0	59.0	59.0	95	57.6	0	1	90	0.00	30.135 
09:25	59.3	59.3	59.3	94	57.6	0	1	90	0.00	30.135 
09:30	59.6	59.6	59.6	93	57.6	0	0	---	0.00	30.139 
09:35	59.9	59.9	59.9	92	57.6	0	2	90	0.00	30.139 
09:40	60.2	60.2	60.2	92	57.9	0	1	90	0.00	30.139 
09:45	60.5	60.5	60.5	92	58.2	0	0	---	0.00	30.139 
09:50	60.9	60.9	60.9	91	58.3	0	0	---	0.00	30.139 
09:55	61.2	61.2	61.2	90	58.2	0	1	90	0.00	30.139 
10:00	61.3	61.3	61.3	90	58.3	0	1	90	0.00	30.139 
10:05	61.5	61.5	61.5	89	58.2	0	0	---	0.00	30.139 
10:10	61.8	61.8	61.8	88	58.2	0	1	90	0.00	30.139 
10:15	62.0	62.0	62.0	88	58.4	0	1	135	0.00	30.141 
10:20	62.3	62.3	62.3	87	58.4	0	1	135	0.00	30.141 
10:25	62.4	62.4	62.4	86	58.2	0	1	135	0.00	30.141 
10:30	62.7	62.7	62.7	86	58.4	0	0	---	0.00	30.143 
10:35	63.1	63.1	63.1	85	58.5	0	0	---	0.00	30.143 
10:40	63.1	63.1	63.1	84	58.2	0	1	135	0.00	30.143 
10:45	63.4	63.4	63.4	84	58.5	0	0	---	0.00	30.140 
10:50	64.2	64.2	64.2	83	58.9	0	2	135	0.00	30.140 
10:55	65.0	65.0	65.0	80	58.7	0	2	135	0.00	30.140 
11:00	65.8	65.8	65.8	79	59.1	0	1	135	0.00	30.138 
11:05	66.3	66.3	66.3	76	58.5	0	2	135	0.00	30.138 
11:10	66.8	66.8	66.8	76	59.0	0	1	135	0.00	30.138 
11:15	67.4	67.4	67.4	76	59.6	0	2	135	0.00	30.134 
11:20	67.6	67.6	67.6	75	59.4	0	2	135	0.00	30.134 
11:25	68.3	68.3	68.3	73	59.3	0	2	135	0.00	30.134 
11:30	68.9	68.9	68.9	71	59.1	0	2	135	0.00	30.126 
11:35	69.6	69.6	69.6	71	59.8	0	2	135	0.00	30.126 
11:40	69.9	69.9	69.9	72	60.4	0	1	135	0.00	30.126 
11:45	70.3	70.3	70.3	71	60.4	0	1	135	0.00	30.123 
11:50	70.9	70.9	70.9	69	60.2	0	2	135	0.00	30.123 
11:55	71.5	71.5	71.5	67	60.0	0	1	135	0.00	30.123 
12:00	72.1	72.1	72.1	66	60.1	0	0	---	0.00	30.120 
12:05	73.2	73.2	73.2	64	60.3	1	3	135	0.00	30.120 
12:10	73.2	73.2	73.2	65	60.7	1	3	135	0.00	30.120 
12:15	73.3	73.3	73.3	64	60.4	0	1	135	0.00	30.120 
12:20	73.5	73.5	73.5	60	58.7	1	5	135	0.00	30.120 
12:25	73.7	73.7	73.7	61	59.4	1	3	112	0.00	30.120 
12:30	73.9	73.9	73.9	61	59.6	0	2	112	0.00	30.116 
12:35	74.2	74.2	74.2	62	60.3	1	4	112	0.00	30.116 
12:40	74.2	74.2	74.2	57	58.0	1	4	112	0.00	30.116 
12:45	74.7	74.7	74.7	60	59.9	0	2	112	0.00	30.112 
12:50	75.1	75.1	77.4	61	60.7	0	2	112	0.00	30.112 
12:55	75.3	75.3	77.6	58	59.5	1	3	315	0.00	30.112 
13:00	75.4	75.4	77.7	58	59.6	0	2	22	0.00	30.110 
13:05	75.6	75.6	77.8	55	58.3	1	4	112	0.00	30.110 
13:10	75.8	75.8	78.0	55	58.5	1	3	112	0.00	30.110 
13:15	76.0	76.0	78.0	58	60.1	1	3	112	0.00	30.105 
13:20	76.0	76.0	78.1	55	58.6	1	2	112	0.00	30.105 
13:25	76.1	76.1	78.1	53	57.7	1	2	112	0.00	30.105 
13:30	76.1	76.1	78.1	52	57.2	1	3	112	0.00	30.102 
13:35	76.1	76.1	78.1	50	56.1	1	3	112	0.00	30.102 
13:40	76.3	76.3	78.2	47	54.6	1	3	112	0.00	30.102 
13:45	76.3	76.3	78.2	48	55.1	1	3	112	0.00	30.100 
13:50	76.5	76.5	78.3	48	55.3	0	1	112	0.00	30.100 
13:55	76.7	76.7	78.3	46	54.3	0	2	112	0.00	30.100 
14:00	76.8	76.8	78.4	46	54.4	1	2	112	0.00	30.092 
14:05	76.8	76.8	78.4	46	54.4	1	3	112	0.00	30.092 
14:10	77.0	77.0	78.5	46	54.6	0	2	112	0.00	30.092 
14:15	77.0	77.0	78.5	47	55.2	1	2	112	0.00	30.088 
14:20	77.4	77.4	78.8	50	57.3	0	1	112	0.00	30.088 
14:25	77.7	77.7	79.0	49	57.0	0	1	112	0.00	30.088 
14:30	77.9	77.9	78.9	44	54.2	0	1	112	0.00	30.080 
14:35	78.1	78.1	79.0	45	55.0	0	1	112	0.00	30.080 
14:40	78.1	78.1	79.0	44	54.4	0	2	112	0.00	30.080 
14:45	78.1	78.1	79.0	44	54.4	0	2	112	0.00	30.074 
14:50	78.1	78.1	79.0	44	54.4	0	2	112	0.00	30.074 
14:55	77.9	77.9	78.8	42	52.9	0	2	112	0.00	30.074 
15:00	77.9	77.9	79.0	46	55.4	1	2	112	0.00	30.071 
15:05	77.7	77.7	78.9	46	55.2	0	3	90	0.00	30.071 
15:10	77.7	77.7	78.7	42	52.8	1	3	90	0.00	30.071 
15:15	77.6	77.6	78.8	45	54.6	0	2	90	0.00	30.069 
15:20	77.7	77.7	79.0	49	57.0	0	1	90	0.00	30.069 
15:25	77.7	77.7	78.6	41	52.1	0	1	90	0.00	30.069 
15:30	78.1	78.1	79.0	44	54.4	0	1	90	0.00	30.064 
15:35	78.5	78.5	79.1	42	53.5	0	2	90	0.00	30.064 
15:40	78.5	78.5	79.1	42	53.5	1	2	90	0.00	30.064 
15:45	78.6	78.6	79.1	41	52.9	0	2	90	0.00	30.056 
15:50	78.8	78.8	79.2	40	52.4	0	1	90	0.00	30.056 
15:55	78.8	78.8	79.1	39	51.7	0	1	90	0.00	30.056 
16:00	78.6	78.6	79.0	39	51.5	0	1	90	0.00	30.055 
16:05	78.5	78.5	79.1	41	52.8	0	2	90	0.00	30.055 
16:10	78.1	78.1	78.7	39	51.1	0	2	90	0.00	30.055 
16:15	77.9	77.9	78.5	37	49.5	0	1	90	0.00	30.051 
16:20	77.9	77.9	78.8	43	53.6	0	1	90	0.00	30.051 
16:25	77.7	77.7	78.7	42	52.8	0	1	90	0.00	30.051 
16:30	77.7	77.7	78.7	42	52.8	0	1	90	0.00	30.048 
16:35	77.9	77.9	78.8	42	52.9	0	0	---	0.00	30.048 
16:40	77.9	77.9	78.8	42	52.9	0	1	90	0.00	30.048 
16:45	77.9	77.9	78.7	40	51.6	0	0	---	0.00	30.046 
16:50	77.7	77.7	78.6	41	52.1	0	1	90	0.00	30.046 
16:55	77.6	77.6	78.5	39	50.7	0	1	90	0.00	30.046 
17:00	77.4	77.4	78.4	40	51.2	0	1	90	0.00	30.044 
17:05	77.2	77.2	78.4	42	52.3	0	2	90	0.00	30.044 
17:10	77.2	77.2	78.4	42	52.3	0	1	90	0.00	30.044 
17:15	77.2	77.2	78.4	42	52.3	0	1	90	0.00	30.043 
17:20	76.8	76.8	78.2	42	51.9	0	1	90	0.00	30.043 
17:25	76.7	76.7	78.2	42	51.9	0	1	90	0.00	30.043 
17:30	76.5	76.5	78.1	43	52.3	0	1	90	0.00	30.043 
17:35	76.5	76.5	78.1	43	52.3	0	0	---	0.00	30.043 
17:40	76.3	76.3	78.0	43	52.1	0	0	---	0.00	30.043 
17:45	76.5	76.5	78.1	43	52.3	0	1	90	0.00	30.042 
17:50	76.5	76.5	78.1	43	52.3	0	0	---	0.00	30.042 
17:55	76.5	76.5	78.2	45	53.6	0	0	---	0.00	30.042 
18:00	76.3	76.3	78.1	44	52.8	0	0	---	0.00	30.041 
18:05	76.1	76.1	78.0	44	52.6	0	0	---	0.00	30.041 
18:10	76.0	76.0	77.9	43	51.9	0	1	90	0.00	30.041 
18:15	75.8	75.8	77.9	44	52.3	0	0	---	0.00	30.041 
18:20	75.8	75.8	77.9	45	52.9	0	0	---	0.00	30.041 
18:25	75.6	75.6	77.8	46	53.3	0	0	---	0.00	30.041 
18:30	75.4	75.4	77.8	46	53.2	0	0	---	0.00	30.040 
18:35	75.1	75.1	77.7	46	52.9	0	0	---	0.00	30.040 
18:40	74.9	74.9	74.9	46	52.7	0	0	---	0.00	30.040 
18:45	74.6	74.6	74.6	47	53.0	0	0	---	0.00	30.040 
18:50	74.4	74.4	74.4	48	53.4	0	0	---	0.00	30.040 
18:55	73.9	73.9	73.9	51	54.6	0	0	---	0.00	30.040 
19:00	73.5	73.5	73.5	52	54.8	0	0	---	0.00	30.034 
19:05	73.0	73.0	73.0	52	54.3	0	0	---	0.00	30.034 
19:10	72.3	72.3	72.3	54	54.7	0	0	---	0.00	30.034 
19:15	72.0	72.0	72.0	56	55.4	0	0	---	0.00	30.038 
19:20	71.5	71.5	71.5	56	55.0	0	0	---	0.00	30.038 
19:25	70.9	70.9	70.9	59	55.8	0	0	---	0.00	30.038 
19:30	70.6	70.6	70.6	60	56.0	0	0	---	0.00	30.038 
19:35	70.1	70.1	70.1	62	56.5	0	0	---	0.00	30.038 
19:40	69.4	69.4	69.4	63	56.2	0	0	---	0.00	30.038 
19:45	68.9	68.9	68.9	64	56.2	0	0	---	0.00	30.036 
19:50	68.3	68.3	68.3	65	56.1	0	0	---	0.00	30.036 
19:55	67.8	67.8	67.8	67	56.4	0	0	---	0.00	30.036 
20:00	67.4	67.4	67.4	69	56.9	0	0	---	0.00	30.034 
20:05	67.1	67.1	67.1	69	56.6	0	0	---	0.00	30.034 
20:10	66.6	66.6	66.6	71	56.9	0	0	---	0.00	30.034 
20:15	66.3	66.3	66.3	73	57.4	0	2	90	0.00	30.038 
20:20	66.0	66.0	66.0	73	57.1	0	0	---	0.00	30.038 
20:25	65.6	65.6	65.6	73	56.7	0	0	---	0.00	30.038 
20:30	65.3	65.3	65.3	73	56.4	0	0	---	0.00	30.038 
20:35	65.0	65.0	65.0	74	56.5	0	0	---	0.00	30.038 
20:40	64.7	64.7	64.7	75	56.6	0	0	---	0.00	30.038 
20:45	64.3	64.3	64.3	76	56.6	0	0	---	0.00	30.037 
20:50	64.0	64.0	64.0	76	56.3	0	0	---	0.00	30.037 
20:55	63.9	63.9	63.9	77	56.5	0	0	---	0.00	30.037 
21:00	63.5	63.5	63.5	77	56.2	0	0	---	0.00	30.041 
21:05	63.4	63.4	63.4	77	56.1	0	0	---	0.00	30.041 
21:10	63.2	63.2	63.2	78	56.2	0	0	---	0.00	30.041 
21:15	62.9	62.9	62.9	78	55.9	0	0	---	0.00	30.034 
21:20	62.7	62.7	62.7	79	56.1	0	0	---	0.00	30.034 
21:25	62.6	62.6	62.6	79	56.0	0	0	---	0.00	30.034 
21:30	62.3	62.3	62.3	79	55.7	0	0	---	0.00	30.034 
21:35	62.1	62.1	62.1	79	55.5	0	0	---	0.00	30.034 
21:40	61.8	61.8	61.8	80	55.6	0	0	---	0.00	30.034 
21:45	61.6	61.6	61.6	81	55.7	0	0	---	0.00	30.033 
21:50	61.5	61.5	61.5	81	55.6	0	0	---	0.00	30.033 
21:55	61.3	61.3	61.3	81	55.4	0	0	---	0.00	30.033 
22:00	61.2	61.2	61.2	82	55.7	0	0	---	0.00	30.034 
22:05	61.2	61.2	61.2	83	56.0	0	0	---	0.00	30.034 
22:10	61.0	61.0	61.0	83	55.8	0	0	---	0.00	30.034 
22:15	61.0	61.0	61.0	83	55.8	0	0	---	0.00	30.030 
22:20	60.9	60.9	60.9	83	55.7	0	0	---	0.00	30.030 
22:25	60.5	60.5	60.5	83	55.3	0	0	---	0.00	30.030 
22:30	60.4	60.4	60.4	83	55.2	0	0	---	0.00	30.030 
22:35	60.2	60.2	60.2	83	55.0	0	0	---	0.00	30.030 
22:40	60.2	60.2	60.2	83	55.0	0	0	---	0.00	30.030 
22:45	60.1	60.1	60.1	83	54.9	0	0	---	0.00	30.030 
22:50	59.9	59.9	59.9	84	55.0	0	0	---	0.00	30.030 
22:55	59.8	59.8	59.8	84	55.0	0	0	---	0.00	30.030 
23:00	59.6	59.6	59.6	84	54.8	0	0	---	0.00	30.029 
23:05	59.6	59.6	59.6	84	54.8	0	0	---	0.00	30.029 
23:10	59.5	59.5	59.5	84	54.7	0	0	---	0.00	30.029 
23:15	59.5	59.5	59.5	84	54.7	0	0	---	0.00	30.025 
23:20	59.3	59.3	59.3	84	54.5	0	0	---	0.00	30.025 
23:25	59.3	59.3	59.3	85	54.8	0	0	---	0.00	30.025 
23:30	59.3	59.3	59.3	85	54.8	0	0	---	0.00	30.026 
23:35	59.2	59.2	59.2	85	54.7	0	0	---	0.00	30.026 
23:40	59.2	59.2	59.2	85	54.7	0	0	---	0.00	30.026 
23:45	59.0	59.0	59.0	85	54.5	0	0	---	0.00	30.026 
23:50	58.9	58.9	58.9	85	54.4	0	0	---	0.00	30.026 
23:55	58.9	58.9	58.9	85	54.4	0	0	---	0.00	30.026 

CoCoRaHS
IN-AL-39
A2 Web Hosting
Creative Commons License
GoDaddy
search engine by freefind advanced

loaded 2018-11-22 06:43:11 • last modified 2010-11-18 10:43:29
Privacy PolicyDisclaimer
• wx.awcolley.com is powered by PmWiki v.2002016 •
• all content (unless otherwise noted) © 2018 A W Colley